^^
Datos históricos de la estación: Murcia-Puente Tocinos
Diario Informe para Marzo 6, 2019 Unidades:  Métrico    Inglés   Ambas
Diario Semanal Mensual Anual Configurable
  Máximo: Mínimo: Media:
Temperatura: 22.7 °C 12.3 °C 16.6 °C
Punto de rocio: 13.2 °C 3.9 °C 10.5 °C
Humedad: 96% 32% 72%
Velocidad viento: 21.7km/h 0.0km/h 7.6km/h
Racha viento: 46.7km/h - -
Viento- - SSE
Presión: 1014.5 hPa 1004.3 hPa -
Precipitación: 0.0 mm    
Historical Graphs
 
 
Tabla de datos para Marzo 6, 2019
Hora Temperatura Punto de rocio Presión Viento Velocidad viento Racha viento Humedad Intensidad lluvia(por hora) Nubes
00:00 13.8 °C 12.2 °C 1014.5 hPa NE 4.8 km/h 9.7 km/h 90% 0.0 mm CLR
00:05 13.8 °C 12.2 °C 1014.2 hPa NE 5.0 km/h 8.4 km/h 90% 0.0 mm CLR
00:10 13.8 °C 12.2 °C 1014.2 hPa NE 4.7 km/h 7.4 km/h 90% 0.0 mm CLR
00:15 13.8 °C 12.3 °C 1014.2 hPa NE 4.7 km/h 10.0 km/h 91% 0.0 mm CLR
00:20 13.8 °C 12.5 °C 1014.1 hPa NE 6.4 km/h 11.1 km/h 92% 0.0 mm CLR
00:25 13.8 °C 12.5 °C 1014.1 hPa ENE 6.4 km/h 7.4 km/h 92% 0.0 mm CLR
00:30 13.8 °C 12.5 °C 1014.1 hPa NNE 7.6 km/h 14.8 km/h 92% 0.0 mm CLR
00:35 13.7 °C 12.4 °C 1013.8 hPa NE 7.6 km/h 11.1 km/h 92% 0.0 mm CLR
00:40 13.6 °C 12.5 °C 1013.8 hPa NE 8.7 km/h 9.3 km/h 93% 0.0 mm CLR
00:45 13.5 °C 12.4 °C 1013.8 hPa NNE 8.7 km/h 10.3 km/h 93% 0.0 mm CLR
00:50 13.4 °C 12.3 °C 1013.8 hPa NNE 6.4 km/h 9.3 km/h 93% 0.0 mm CLR
00:55 13.4 °C 12.3 °C 1013.8 hPa NE 6.4 km/h 7.4 km/h 93% 0.0 mm CLR
01:00 13.4 °C 12.3 °C 1013.8 hPa NNE 4.8 km/h 9.7 km/h 93% 0.0 mm CLR
01:05 13.3 °C 12.3 °C 1013.7 hPa North 5.8 km/h 7.4 km/h 94% 0.0 mm CLR
01:10 13.4 °C 12.4 °C 1013.7 hPa NE 5.0 km/h 8.4 km/h 94% 0.0 mm CLR
01:15 13.4 °C 12.4 °C 1013.7 hPa NE 5.0 km/h 11.1 km/h 94% 0.0 mm CLR
01:20 13.4 °C 12.4 °C 1013.7 hPa NNW 6.9 km/h 13.0 km/h 94% 0.0 mm CLR
01:25 13.4 °C 12.6 °C 1013.7 hPa NE 6.9 km/h 7.4 km/h 95% 0.0 mm CLR
01:30 13.4 °C 12.6 °C 1013.7 hPa NE 6.9 km/h 5.6 km/h 95% 0.0 mm CLR
01:35 13.5 °C 12.7 °C 1013.5 hPa NE 6.9 km/h 8.4 km/h 95% 0.0 mm CLR
01:40 13.4 °C 12.6 °C 1013.5 hPa NE 4.8 km/h 11.3 km/h 95% 0.0 mm CLR
01:45 13.4 °C 12.6 °C 1013.5 hPa NE 5.0 km/h 7.6 km/h 95% 0.0 mm CLR
01:50 13.4 °C 12.6 °C 1013.1 hPa ENE 5.8 km/h 11.1 km/h 95% 0.0 mm CLR
01:55 13.3 °C 12.5 °C 1013.1 hPa NNE 5.8 km/h 11.1 km/h 95% 0.0 mm CLR
02:00 13.3 °C 12.5 °C 1013.1 hPa NE 8.0 km/h 9.7 km/h 95% 0.0 mm CLR
02:05 13.3 °C 12.5 °C 1013.1 hPa NE 6.4 km/h 5.6 km/h 95% 0.0 mm CLR
02:10 13.3 °C 12.5 °C 1013.1 hPa NE 3.9 km/h 9.3 km/h 95% 0.0 mm CLR
02:15 13.2 °C 12.4 °C 1013.1 hPa NE 3.9 km/h 9.3 km/h 95% 0.0 mm CLR
02:20 13.1 °C 12.3 °C 1012.9 hPa East 6.4 km/h 8.4 km/h 95% 0.0 mm CLR
02:25 12.9 °C 12.1 °C 1012.9 hPa ENE 6.4 km/h 7.6 km/h 95% 0.0 mm CLR
02:30 12.9 °C 12.1 °C 1012.9 hPa ENE 5.0 km/h 7.4 km/h 95% 0.0 mm CLR
02:35 12.8 °C 12.0 °C 1012.7 hPa ESE 5.0 km/h 9.3 km/h 95% 0.0 mm CLR
02:40 12.7 °C 11.9 °C 1012.7 hPa ENE 3.9 km/h 7.4 km/h 95% 0.0 mm CLR
02:45 12.7 °C 11.9 °C 1012.7 hPa ENE 3.9 km/h 7.4 km/h 95% 0.0 mm CLR
02:50 12.7 °C 11.9 °C 1012.6 hPa ESE 3.9 km/h 7.4 km/h 95% 0.0 mm CLR
02:55 12.7 °C 11.9 °C 1012.6 hPa NE 3.9 km/h 7.4 km/h 95% 0.0 mm CLR
03:00 12.7 °C 11.9 °C 1012.6 hPa ENE 3.2 km/h 8.0 km/h 95% 0.0 mm CLR
03:05 12.8 °C 12.0 °C 1012.3 hPa East 3.9 km/h 7.4 km/h 95% 0.0 mm CLR
03:10 12.8 °C 12.0 °C 1012.3 hPa East 5.8 km/h 9.3 km/h 95% 0.0 mm CLR
03:15 12.8 °C 12.0 °C 1012.3 hPa ESE 5.8 km/h 9.3 km/h 95% 0.0 mm CLR
03:20 12.8 °C 12.0 °C 1012.0 hPa NE 5.0 km/h 7.4 km/h 95% 0.0 mm CLR
03:25 12.8 °C 12.0 °C 1012.0 hPa ESE 5.0 km/h 7.4 km/h 95% 0.0 mm CLR
03:30 12.8 °C 12.2 °C 1012.0 hPa ESE 4.7 km/h 3.7 km/h 96% 0.0 mm CLR
03:35 12.8 °C 12.0 °C 1011.9 hPa East 4.7 km/h 7.4 km/h 95% 0.0 mm CLR
03:40 12.8 °C 12.0 °C 1011.9 hPa ENE 2.9 km/h 5.6 km/h 95% 0.0 mm CLR
03:45 12.8 °C 12.0 °C 1011.9 hPa East 2.9 km/h 9.3 km/h 95% 0.0 mm CLR
03:50 12.6 °C 11.8 °C 1011.5 hPa East 4.7 km/h 7.4 km/h 95% 0.0 mm CLR
03:55 12.6 °C 11.8 °C 1011.5 hPa East 4.7 km/h 9.3 km/h 95% 0.0 mm CLR
04:00 12.4 °C 11.6 °C 1011.5 hPa ESE 4.8 km/h 11.3 km/h 95% 0.0 mm CLR
04:05 12.4 °C 11.6 °C 1011.4 hPa ESE 5.8 km/h 9.3 km/h 95% 0.0 mm CLR
04:10 12.3 °C 11.5 °C 1011.4 hPa SE 6.4 km/h 7.4 km/h 95% 0.0 mm CLR
04:15 12.3 °C 11.5 °C 1011.4 hPa SE 6.4 km/h 5.6 km/h 95% 0.0 mm CLR
04:20 12.3 °C 11.7 °C 1011.1 hPa SE 4.7 km/h 7.4 km/h 96% 0.0 mm CLR
04:25 12.4 °C 11.8 °C 1011.1 hPa SE 4.7 km/h 7.4 km/h 96% 0.0 mm CLR
04:30 12.4 °C 11.6 °C 1011.1 hPa SSE 4.7 km/h 8.4 km/h 95% 0.0 mm CLR
04:35 12.4 °C 11.6 °C 1011.1 hPa SSE 4.7 km/h 10.0 km/h 95% 0.0 mm CLR
04:40 12.5 °C 11.7 °C 1011.1 hPa SSE 6.9 km/h 7.4 km/h 95% 0.0 mm CLR
04:45 12.5 °C 11.7 °C 1011.1 hPa South 6.9 km/h 7.4 km/h 95% 0.0 mm CLR
04:50 12.6 °C 11.8 °C 1011.1 hPa South 5.0 km/h 1.9 km/h 95% 0.0 mm CLR
04:55 12.6 °C 11.8 °C 1011.1 hPa South 5.0 km/h   95% 0.0 mm CLR
05:00 12.7 °C 11.9 °C 1011.1 hPa Calm   8.0 km/h 95% 0.0 mm CLR
05:05 12.7 °C 11.9 °C 1010.8 hPa Calm   7.4 km/h 95% 0.0 mm CLR
05:10 12.6 °C 11.7 °C 1010.8 hPa SSE 5.8 km/h 9.3 km/h 94% 0.0 mm CLR
05:15 12.6 °C 11.7 °C 1010.8 hPa SSE 5.8 km/h 5.0 km/h 94% 0.0 mm CLR
05:20 12.7 °C 11.8 °C 1010.9 hPa SSE 3.9 km/h   94% 0.0 mm CLR
05:25 12.7 °C 11.8 °C 1010.9 hPa SSE 3.9 km/h 9.3 km/h 94% 0.0 mm CLR
05:30 12.7 °C 11.8 °C 1010.9 hPa SSE 3.9 km/h 7.4 km/h 94% 0.0 mm CLR
05:35 12.7 °C 11.8 °C 1010.7 hPa SE 3.9 km/h 7.4 km/h 94% 0.0 mm CLR
05:40 12.7 °C 11.6 °C 1010.7 hPa SSE 5.8 km/h 7.6 km/h 93% 0.0 mm CLR
05:45 12.8 °C 11.7 °C 1010.7 hPa SSE 5.8 km/h 7.4 km/h 93% 0.0 mm CLR
05:50 12.8 °C 11.7 °C 1011.0 hPa SSE 5.0 km/h 7.4 km/h 93% 0.0 mm CLR
05:55 12.8 °C 11.7 °C 1011.0 hPa SSE 5.0 km/h 3.7 km/h 93% 0.0 mm CLR
06:00 12.8 °C 11.7 °C 1011.0 hPa SSE 3.2 km/h 8.0 km/h 93% 0.0 mm CLR
06:05 12.9 °C 11.8 °C 1010.9 hPa SSE 3.9 km/h 6.4 km/h 93% 0.0 mm CLR
06:10 12.9 °C 11.8 °C 1010.9 hPa SSE 3.9 km/h 7.4 km/h 93% 0.0 mm CLR
06:15 12.9 °C 11.8 °C 1010.9 hPa ESE 3.9 km/h 6.9 km/h 93% 0.0 mm CLR
06:20 12.9 °C 11.8 °C 1010.8 hPa ESE 4.7 km/h 8.4 km/h 93% 0.0 mm CLR
06:25 12.9 °C 11.8 °C 1010.8 hPa East 4.7 km/h 7.4 km/h 93% 0.0 mm CLR
06:30 12.9 °C 11.8 °C 1010.8 hPa ESE 4.7 km/h 7.4 km/h 93% 0.0 mm CLR
06:35 12.8 °C 11.7 °C 1010.6 hPa ESE 4.7 km/h 5.6 km/h 93% 0.0 mm CLR
06:40 12.8 °C 11.7 °C 1010.6 hPa East 4.7 km/h 3.7 km/h 93% 0.0 mm CLR
06:45 12.8 °C 11.7 °C 1010.6 hPa East 4.7 km/h   93% 0.0 mm CLR
06:50 12.8 °C 11.7 °C 1010.6 hPa Calm     93% 0.0 mm CLR
06:55 12.8 °C 11.7 °C 1010.6 hPa Calm   7.4 km/h 93% 0.0 mm CLR
07:00 12.8 °C 11.7 °C 1010.6 hPa NE 3.2 km/h 4.8 km/h 93% 0.0 mm CLR
07:05 12.7 °C 11.6 °C 1010.3 hPa NE 2.9 km/h 5.6 km/h 93% 0.0 mm CLR
07:10 12.7 °C 11.6 °C 1010.3 hPa NE 3.2 km/h 5.0 km/h 93% 0.0 mm CLR
07:15 12.7 °C 11.6 °C 1010.3 hPa NE 3.2 km/h 5.6 km/h 93% 0.0 mm CLR
07:20 12.7 °C 11.6 °C 1010.3 hPa NE 3.2 km/h 5.6 km/h 93% 0.0 mm CLR
07:25 12.6 °C 11.5 °C 1010.3 hPa NE 3.2 km/h 9.3 km/h 93% 0.0 mm CLR
07:30 12.6 °C 11.5 °C 1010.3 hPa NE 4.7 km/h 7.6 km/h 93% 0.0 mm CLR
07:35 12.5 °C 11.4 °C 1010.1 hPa NE 4.7 km/h 4.7 km/h 93% 0.0 mm CLR
07:40 12.6 °C 11.5 °C 1010.1 hPa NE 4.7 km/h 7.6 km/h 93% 0.0 mm CLR
07:45 12.6 °C 11.5 °C 1010.1 hPa NNE 4.7 km/h 7.4 km/h 93% 0.0 mm CLR
07:50 12.6 °C 11.5 °C 1010.1 hPa NE 5.0 km/h 7.4 km/h 93% 0.0 mm CLR
07:55 12.6 °C 11.5 °C 1010.1 hPa NE 5.0 km/h 7.4 km/h 93% 0.0 mm CLR
08:00 12.6 °C 11.7 °C 1010.1 hPa NNE 3.2 km/h 8.0 km/h 94% 0.0 mm CLR
08:05 12.6 °C 11.7 °C 1010.0 hPa ENE 4.7 km/h 9.3 km/h 94% 0.0 mm CLR
08:10 12.6 °C 11.7 °C 1010.0 hPa NE 5.8 km/h 7.4 km/h 94% 0.0 mm CLR
08:15 12.6 °C 11.7 °C 1010.0 hPa NE 5.8 km/h 5.6 km/h 94% 0.0 mm CLR
08:20 12.7 °C 11.8 °C 1010.2 hPa NNW 3.9 km/h 3.7 km/h 94% 0.0 mm CLR
08:25 12.7 °C 11.8 °C 1010.2 hPa NNW 3.9 km/h   94% 0.0 mm CLR
08:30 12.8 °C 11.8 °C 1010.2 hPa Calm   5.6 km/h 94% 0.0 mm CLR
08:35 12.8 °C 11.8 °C 1010.4 hPa Calm   5.6 km/h 94% 0.0 mm CLR
08:40 12.8 °C 11.8 °C 1010.4 hPa NNW 3.2 km/h 3.7 km/h 94% 0.0 mm CLR
08:45 12.9 °C 11.9 °C 1010.4 hPa North 3.2 km/h 9.3 km/h 94% 0.0 mm CLR
08:50 12.9 °C 11.9 °C 1010.4 hPa North 3.9 km/h 7.4 km/h 94% 0.0 mm CLR
08:55 12.9 °C 11.9 °C 1010.4 hPa NNE 3.9 km/h 9.3 km/h 94% 0.0 mm CLR
09:00 12.9 °C 11.9 °C 1010.4 hPa NE 3.2 km/h 9.7 km/h 94% 0.0 mm CLR
09:05 12.9 °C 11.9 °C 1010.3 hPa NNE 4.7 km/h 7.4 km/h 94% 0.0 mm CLR
09:10 12.9 °C 11.9 °C 1010.3 hPa NNE 5.0 km/h 9.3 km/h 94% 0.0 mm CLR
09:15 13.0 °C 12.1 °C 1010.3 hPa North 5.0 km/h 6.4 km/h 94% 0.0 mm CLR
09:20 13.1 °C 12.2 °C 1010.2 hPa NE 3.9 km/h 9.3 km/h 94% 0.0 mm CLR
09:25 13.1 °C 12.2 °C 1010.2 hPa NNW 3.9 km/h 7.4 km/h 94% 0.0 mm CLR
09:30 13.1 °C 12.2 °C 1010.2 hPa North 5.8 km/h 7.4 km/h 94% 0.0 mm CLR
09:35 13.2 °C 12.1 °C 1010.2 hPa NNE 5.8 km/h 7.4 km/h 93% 0.0 mm CLR
09:40 13.2 °C 12.1 °C 1010.2 hPa NW 5.0 km/h 6.9 km/h 93% 0.0 mm CLR
09:45 13.3 °C 12.2 °C 1010.2 hPa NNW 5.0 km/h 8.4 km/h 93% 0.0 mm CLR
09:50 13.4 °C 12.3 °C 1010.2 hPa North 4.7 km/h 11.1 km/h 93% 0.0 mm CLR
09:55 13.4 °C 12.1 °C 1010.2 hPa ENE 4.7 km/h 13.0 km/h 92% 0.0 mm CLR
10:00 13.5 °C 12.2 °C 1010.2 hPa NNE 8.0 km/h 11.3 km/h 92% 0.0 mm CLR
10:05 13.6 °C 12.3 °C 1010.1 hPa NNE 6.9 km/h 11.1 km/h 92% 0.0 mm CLR
10:10 13.7 °C 12.4 °C 1010.1 hPa NE 6.9 km/h 11.1 km/h 92% 0.0 mm CLR
10:15 13.8 °C 12.5 °C 1010.1 hPa NE 6.9 km/h 9.3 km/h 92% 0.0 mm CLR
10:20 13.9 °C 12.4 °C 1010.2 hPa NNE 5.8 km/h 11.1 km/h 91% 0.0 mm CLR
10:25 14.1 °C 12.7 °C 1010.2 hPa NNE 5.8 km/h 11.1 km/h 91% 0.0 mm CLR
10:30 14.2 °C 12.8 °C 1010.2 hPa NE 6.9 km/h 7.4 km/h 91% 0.0 mm CLR
10:35 14.3 °C 12.7 °C 1010.4 hPa NNW 6.9 km/h 7.4 km/h 90% 0.0 mm CLR
10:40 14.5 °C 12.7 °C 1010.4 hPa NNW 5.0 km/h 9.3 km/h 89% 0.0 mm CLR
10:45 14.6 °C 12.6 °C 1010.4 hPa North 5.0 km/h 7.4 km/h 88% 0.0 mm CLR
10:50 14.7 °C 12.6 °C 1010.3 hPa NNE 5.8 km/h 3.7 km/h 87% 0.0 mm CLR
10:55 14.8 °C 12.7 °C 1010.3 hPa NW 5.8 km/h 5.0 km/h 87% 0.0 mm CLR
11:00 14.9 °C 12.7 °C 1010.3 hPa NNW 3.2 km/h 8.0 km/h 87% 0.0 mm CLR
11:05 14.9 °C 12.6 °C 1010.1 hPa NE 3.2 km/h 7.4 km/h 86% 0.0 mm CLR
11:10 15.0 °C 12.7 °C 1010.1 hPa NE 3.9 km/h 7.6 km/h 86% 0.0 mm CLR
11:15 15.1 °C 12.6 °C 1010.1 hPa ENE 3.9 km/h 9.3 km/h 85% 0.0 mm CLR
11:20 15.1 °C 12.6 °C 1009.9 hPa NNE 4.7 km/h 5.6 km/h 85% 0.0 mm CLR
11:25 15.1 °C 12.6 °C 1009.9 hPa NNW 4.7 km/h 7.4 km/h 85% 0.0 mm CLR
11:30 15.2 °C 12.7 °C 1009.9 hPa North 3.2 km/h 8.0 km/h 85% 0.0 mm CLR
11:35 15.3 °C 12.6 °C 1009.8 hPa North 3.2 km/h 7.4 km/h 84% 0.0 mm CLR
11:40 15.4 °C 12.7 °C 1009.8 hPa NNW 3.9 km/h 7.4 km/h 84% 0.0 mm CLR
11:45 15.4 °C 12.5 °C 1009.8 hPa NE 3.9 km/h 9.3 km/h 83% 0.0 mm CLR
11:50 15.6 °C 12.7 °C 1009.7 hPa NW 5.0 km/h 7.4 km/h 83% 0.0 mm CLR
11:55 15.7 °C 12.8 °C 1009.7 hPa NNW 5.0 km/h 7.4 km/h 83% 0.0 mm CLR
12:00 15.9 °C 13.0 °C 1009.7 hPa North 3.2 km/h 11.3 km/h 83% 0.0 mm CLR
12:05 16.0 °C 12.9 °C 1009.5 hPa NNW 4.7 km/h 9.3 km/h 82% 0.0 mm CLR
12:10 16.1 °C 12.8 °C 1009.5 hPa NNE 6.4 km/h 7.4 km/h 81% 0.0 mm CLR
12:15 16.2 °C 12.9 °C 1009.5 hPa NNE 6.4 km/h 13.0 km/h 81% 0.0 mm CLR
12:20 16.3 °C 12.8 °C 1009.3 hPa NNE 6.9 km/h 11.1 km/h 80% 0.0 mm CLR
12:25 16.4 °C 12.9 °C 1009.3 hPa NE 6.9 km/h 9.3 km/h 80% 0.0 mm CLR
12:30 16.7 °C 13.1 °C 1009.3 hPa NNW 6.4 km/h 7.4 km/h 79% 0.0 mm CLR
12:35 17.1 °C 13.2 °C 1009.0 hPa NE 6.4 km/h 8.4 km/h 78% 0.0 mm CLR
12:40 17.4 °C 12.9 °C 1009.0 hPa North 4.7 km/h 7.4 km/h 75% 0.0 mm CLR
12:45 17.6 °C 12.9 °C 1009.0 hPa North 4.7 km/h 13.0 km/h 74% 0.0 mm CLR
12:50 17.7 °C 13.0 °C 1008.7 hPa NNW 5.8 km/h 11.1 km/h 74% 0.0 mm CLR
12:55 17.9 °C 13.0 °C 1008.7 hPa ENE 5.8 km/h 11.1 km/h 73% 0.0 mm CLR
13:00 18.0 °C 13.1 °C 1008.7 hPa NE 8.0 km/h 11.3 km/h 73% 0.0 mm CLR
13:05 18.1 °C 12.9 °C 1008.3 hPa NE 6.4 km/h 7.4 km/h 72% 0.0 mm CLR
13:10 18.3 °C 12.9 °C 1008.3 hPa NE 5.0 km/h 9.5 km/h 71% 0.0 mm CLR
13:15 18.4 °C 12.6 °C 1008.3 hPa NNE 5.0 km/h 11.1 km/h 69% 0.0 mm CLR
13:20 18.6 °C 12.8 °C 1007.9 hPa NE 5.0 km/h 5.6 km/h 69% 0.0 mm CLR
13:25 18.7 °C 12.9 °C 1007.9 hPa NW 5.0 km/h 9.3 km/h 69% 0.0 mm CLR
13:30 18.9 °C 12.6 °C 1007.9 hPa NW 5.0 km/h 7.4 km/h 67% 0.0 mm CLR
13:35 19.2 °C 12.9 °C 1007.8 hPa NNE 5.0 km/h 9.3 km/h 67% 0.0 mm CLR
13:40 19.3 °C 12.6 °C 1007.8 hPa NW 4.7 km/h 9.3 km/h 65% 0.0 mm CLR
13:45 19.4 °C 12.7 °C 1007.8 hPa WNW 4.7 km/h 7.4 km/h 65% 0.0 mm CLR
13:50 19.4 °C 12.7 °C 1007.5 hPa NE 5.8 km/h 9.3 km/h 65% 0.0 mm CLR
13:55 19.7 °C 12.7 °C 1007.5 hPa North 5.8 km/h 13.0 km/h 64% 0.0 mm CLR
14:00 19.8 °C 12.8 °C 1007.5 hPa North 4.8 km/h 14.5 km/h 64% 0.0 mm CLR
14:05 19.8 °C 12.8 °C 1006.9 hPa NNE 5.8 km/h 13.0 km/h 64% 0.0 mm CLR
14:10 19.7 °C 12.4 °C 1006.9 hPa NE 8.4 km/h 11.1 km/h 63% 0.0 mm CLR
14:15 19.6 °C 12.4 °C 1006.9 hPa ENE 8.4 km/h 9.3 km/h 63% 0.0 mm CLR
14:20 19.7 °C 12.4 °C 1006.5 hPa North 5.8 km/h 11.1 km/h 63% 0.0 mm CLR
14:25 19.8 °C 12.3 °C 1006.5 hPa NW 5.8 km/h 7.6 km/h 62% 0.0 mm CLR
14:30 19.9 °C 12.4 °C 1006.5 hPa NNE 5.8 km/h 13.0 km/h 62% 0.0 mm CLR
14:35 19.9 °C 12.2 °C 1006.3 hPa NNE 5.8 km/h 11.1 km/h 61% 0.0 mm CLR
14:40 19.9 °C 12.2 °C 1006.3 hPa NNE 6.4 km/h 13.0 km/h 61% 0.0 mm CLR
14:45 20.0 °C 12.2 °C 1006.3 hPa NE 6.4 km/h 9.5 km/h 61% 0.0 mm CLR
14:50 20.2 °C 12.2 °C 1005.9 hPa NE 7.6 km/h 13.0 km/h 60% 0.0 mm CLR
14:55 20.3 °C 12.3 °C 1005.9 hPa ESE 7.6 km/h 7.4 km/h 60% 0.0 mm CLR
15:00 20.5 °C 11.9 °C 1005.9 hPa East 4.8 km/h 9.7 km/h 58% 0.0 mm CLR
15:05 20.7 °C 11.9 °C 1005.6 hPa ENE 5.8 km/h 8.7 km/h 57% 0.0 mm CLR
15:10 20.9 °C 11.5 °C 1005.6 hPa SSW 5.0 km/h 13.0 km/h 55% 0.0 mm CLR
15:15 21.2 °C 10.7 °C 1005.6 hPa South 5.0 km/h 20.4 km/h 51% 0.0 mm CLR
15:20 21.4 °C 10.6 °C 1005.4 hPa SSE 12.2 km/h 18.5 km/h 50% 0.0 mm CLR
15:25 21.7 °C 10.5 °C 1005.4 hPa South 12.2 km/h 27.8 km/h 49% 0.0 mm CLR
15:30 21.7 °C 10.2 °C 1005.4 hPa SSE 13.0 km/h 25.9 km/h 48% 0.0 mm CLR
15:35 21.7 °C 10.2 °C 1005.3 hPa SSE 13.0 km/h 20.4 km/h 48% 0.0 mm CLR
15:40 21.8 °C 10.3 °C 1005.3 hPa SE 13.7 km/h 14.8 km/h 48% 0.0 mm CLR
15:45 21.9 °C 9.8 °C 1005.3 hPa ESE 13.7 km/h 22.2 km/h 46% 0.0 mm CLR
15:50 22.1 °C 9.3 °C 1005.1 hPa South 11.9 km/h 22.2 km/h 44% 0.0 mm CLR
15:55 22.1 °C 9.3 °C 1005.1 hPa SSE 11.9 km/h 18.5 km/h 44% 0.0 mm CLR
16:00 22.1 °C 8.9 °C 1005.1 hPa SSE 14.5 km/h 20.9 km/h 43% 0.0 mm CLR
16:05 22.3 °C 8.8 °C 1004.7 hPa SSE 14.8 km/h 31.5 km/h 42% 0.0 mm CLR
16:10 22.3 °C 8.4 °C 1004.7 hPa SE 15.6 km/h 18.5 km/h 41% 0.0 mm CLR
16:15 22.5 °C 8.6 °C 1004.7 hPa SSW 15.6 km/h 18.5 km/h 41% 0.0 mm CLR
16:20 22.6 °C 8.7 °C 1004.5 hPa SE 12.2 km/h 13.0 km/h 41% 0.0 mm CLR
16:25 22.7 °C 8.4 °C 1004.5 hPa SSW 12.2 km/h 16.7 km/h 40% 0.0 mm CLR
16:30 22.7 °C 9.5 °C 1004.5 hPa WSW 8.4 km/h 11.1 km/h 43% 0.0 mm CLR
16:35 22.7 °C 9.8 °C 1004.5 hPa West 8.4 km/h 11.1 km/h 44% 0.0 mm CLR
16:40 22.6 °C 9.7 °C 1004.5 hPa WSW 8.4 km/h 13.0 km/h 44% 0.0 mm CLR
16:45 22.6 °C 10.1 °C 1004.5 hPa WSW 8.4 km/h 7.4 km/h 45% 0.0 mm CLR
16:50 22.5 °C 9.6 °C 1004.5 hPa WNW 6.9 km/h 9.3 km/h 44% 0.0 mm CLR
16:55 22.6 °C 10.1 °C 1004.5 hPa West 6.9 km/h 11.1 km/h 45% 0.0 mm CLR
17:00 22.6 °C 9.7 °C 1004.5 hPa WNW 8.0 km/h 11.3 km/h 44% 0.0 mm CLR
17:05 22.5 °C 9.6 °C 1004.5 hPa NW 6.9 km/h 9.3 km/h 44% 0.0 mm CLR
17:10 22.5 °C 9.6 °C 1004.5 hPa NNW 5.8 km/h 7.4 km/h 44% 0.0 mm CLR
17:15 22.5 °C 9.3 °C 1004.5 hPa NNW 5.8 km/h   43% 0.0 mm CLR
17:20 22.6 °C 9.4 °C 1004.3 hPa NNW 3.2 km/h 7.4 km/h 43% 0.0 mm CLR
17:25 22.6 °C 9.4 °C 1004.3 hPa NW 3.2 km/h 9.3 km/h 43% 0.0 mm CLR
17:30 22.5 °C 9.3 °C 1004.3 hPa NNE 6.4 km/h 14.8 km/h 43% 0.0 mm CLR
17:35 22.4 °C 9.2 °C 1004.7 hPa NW 6.4 km/h 9.3 km/h 43% 0.0 mm CLR
17:40 22.4 °C 9.2 °C 1004.7 hPa NE 6.4 km/h 3.9 km/h 43% 0.0 mm CLR
17:45 22.6 °C 9.1 °C 1004.7 hPa NW 6.4 km/h 7.4 km/h 42% 0.0 mm CLR
17:50 22.7 °C 9.1 °C 1004.9 hPa NNW 3.2 km/h 7.4 km/h 42% 0.0 mm CLR
17:55 22.7 °C 9.1 °C 1004.9 hPa NE 3.2 km/h 5.8 km/h 42% 0.0 mm CLR
18:00 22.6 °C 9.1 °C 1004.9 hPa North 3.2 km/h 9.7 km/h 42% 0.0 mm CLR
18:05 22.6 °C 9.1 °C 1005.0 hPa NW 4.7 km/h 7.6 km/h 42% 0.0 mm CLR
18:10 22.4 °C 9.2 °C 1005.0 hPa NW 3.2 km/h 3.7 km/h 43% 0.0 mm CLR
18:15 22.4 °C 9.2 °C 1005.0 hPa WNW 3.2 km/h 7.4 km/h 43% 0.0 mm CLR
18:20 22.3 °C 9.1 °C 1005.3 hPa NW 3.9 km/h 9.3 km/h 43% 0.0 mm CLR
18:25 22.2 °C 9.0 °C 1005.3 hPa WNW 3.9 km/h 9.3 km/h 43% 0.0 mm CLR
18:30 22.1 °C 8.9 °C 1005.3 hPa WNW 6.4 km/h 7.4 km/h 43% 0.0 mm CLR
18:35 22.1 °C 8.9 °C 1005.2 hPa NW 6.4 km/h 9.3 km/h 43% 0.0 mm CLR
18:40 22.1 °C 8.9 °C 1005.2 hPa WNW 6.4 km/h 11.1 km/h 43% 0.0 mm CLR
18:45 22.2 °C 9.0 °C 1005.2 hPa SW 6.4 km/h 9.5 km/h 43% 0.0 mm CLR
18:50 22.2 °C 9.0 °C 1005.7 hPa SSW 6.4 km/h 31.5 km/h 43% 0.0 mm CLR
18:55 22.5 °C 5.4 °C 1005.7 hPa WNW 6.4 km/h 31.5 km/h 33% 0.0 mm CLR
19:00 22.7 °C 5.2 °C 1005.7 hPa SW 20.9 km/h 46.7 km/h 32% 0.0 mm CLR
19:05 22.7 °C 5.2 °C 1006.1 hPa SW 19.8 km/h 33.3 km/h 32% 0.0 mm CLR
19:10 22.7 °C 5.6 °C 1006.1 hPa SW 21.7 km/h 29.6 km/h 33% 0.0 mm CLR
19:15 22.6 °C 5.5 °C 1006.1 hPa SW 21.7 km/h 42.6 km/h 33% 0.0 mm CLR
19:20 22.4 °C 5.3 °C 1006.6 hPa SW 20.1 km/h 37.0 km/h 33% 0.0 mm CLR
19:25 22.2 °C 5.6 °C 1006.6 hPa SW 20.1 km/h 29.6 km/h 34% 0.0 mm CLR
19:30 22.1 °C 5.9 °C 1006.6 hPa WSW 19.0 km/h 24.1 km/h 35% 0.0 mm CLR
19:35 21.9 °C 6.2 °C 1007.1 hPa SSW 19.0 km/h 29.6 km/h 36% 0.0 mm CLR
19:40 21.8 °C 6.4 °C 1007.1 hPa South 16.4 km/h 31.5 km/h 37% 0.0 mm CLR
19:45 21.7 °C 6.4 °C 1007.1 hPa West 16.4 km/h 18.5 km/h 37% 0.0 mm CLR
19:50 21.5 °C 6.6 °C 1007.7 hPa SSW 17.2 km/h 27.8 km/h 38% 0.0 mm CLR
19:55 21.3 °C 6.8 °C 1007.7 hPa WSW 17.2 km/h 38.9 km/h 39% 0.0 mm CLR
20:00 21.2 °C 6.7 °C 1007.7 hPa SW 16.1 km/h 33.8 km/h 39% 0.0 mm CLR
20:05 21.1 °C 6.9 °C 1008.0 hPa West 17.2 km/h 16.7 km/h 40% 0.0 mm CLR
20:10 20.9 °C 6.8 °C 1008.0 hPa SW 18.3 km/h 27.8 km/h 40% 0.0 mm CLR
20:15 20.7 °C 6.9 °C 1008.0 hPa SW 18.3 km/h 29.6 km/h 41% 0.0 mm CLR
20:20 20.6 °C 6.9 °C 1008.5 hPa SW 19.8 km/h 35.2 km/h 41% 0.0 mm CLR
20:25 20.5 °C 6.8 °C 1008.5 hPa WSW 19.8 km/h 27.8 km/h 41% 0.0 mm CLR
20:30 20.4 °C 6.7 °C 1008.5 hPa SW 18.0 km/h 33.3 km/h 41% 0.0 mm CLR
20:35 20.4 °C 6.7 °C 1008.5 hPa WSW 18.0 km/h 20.4 km/h 41% 0.0 mm CLR
20:40 20.3 °C 6.6 °C 1008.5 hPa SW 17.2 km/h 37.0 km/h 41% 0.0 mm CLR
20:45 20.3 °C 6.6 °C 1008.5 hPa SW 17.2 km/h 25.9 km/h 41% 0.0 mm CLR
20:50 20.2 °C 6.5 °C 1009.2 hPa SSW 18.3 km/h 13.0 km/h 41% 0.0 mm CLR
20:55 20.1 °C 6.4 °C 1009.2 hPa SW 18.3 km/h 27.8 km/h 41% 0.0 mm CLR
21:00 20.0 °C 6.3 °C 1009.2 hPa SW 12.9 km/h 24.1 km/h 41% 0.0 mm CLR
21:05 19.9 °C 6.6 °C 1009.6 hPa WSW 13.0 km/h 18.5 km/h 42% 0.0 mm CLR
21:10 19.8 °C 6.5 °C 1009.6 hPa SW 11.9 km/h 14.8 km/h 42% 0.0 mm CLR
21:15 19.7 °C 6.4 °C 1009.6 hPa WSW 11.9 km/h 20.4 km/h 42% 0.0 mm CLR
21:20 19.7 °C 6.4 °C 1010.2 hPa West 10.3 km/h 18.5 km/h 42% 0.0 mm CLR
21:25 19.6 °C 6.3 °C 1010.2 hPa West 10.3 km/h 24.1 km/h 42% 0.0 mm CLR
21:30 19.5 °C 6.2 °C 1010.2 hPa SW 13.0 km/h 20.4 km/h 42% 0.0 mm CLR
21:35 19.4 °C 6.5 °C 1010.4 hPa West 13.0 km/h 24.5 km/h 43% 0.0 mm CLR
21:40 19.2 °C 6.7 °C 1010.4 hPa WNW 13.7 km/h 22.2 km/h 44% 0.0 mm CLR
21:45 18.9 °C 6.7 °C 1010.4 hPa SW 13.7 km/h 24.1 km/h 45% 0.0 mm CLR
21:50 18.7 °C 6.8 °C 1010.7 hPa WNW 14.0 km/h 22.2 km/h 46% 0.0 mm CLR
21:55 18.6 °C 6.7 °C 1010.7 hPa West 14.0 km/h 22.5 km/h 46% 0.0 mm CLR
22:00 18.4 °C 6.9 °C 1010.7 hPa West 12.9 km/h 24.1 km/h 47% 0.0 mm CLR
22:05 18.2 °C 6.7 °C 1010.9 hPa West 13.7 km/h 17.2 km/h 47% 0.0 mm CLR
22:10 18.0 °C 6.8 °C 1010.9 hPa WNW 13.7 km/h 20.4 km/h 48% 0.0 mm CLR
22:15 17.9 °C 6.7 °C 1010.9 hPa NW 13.7 km/h 24.1 km/h 48% 0.0 mm CLR
22:20 17.8 °C 6.6 °C 1011.2 hPa NW 14.8 km/h 16.7 km/h 48% 0.0 mm CLR
22:25 17.7 °C 6.6 °C 1011.2 hPa West 14.8 km/h 20.4 km/h 48% 0.0 mm CLR
22:30 17.6 °C 6.4 °C 1011.2 hPa NW 13.0 km/h 16.7 km/h 48% 0.0 mm CLR
22:35 17.4 °C 6.3 °C 1011.6 hPa NW 13.0 km/h 16.7 km/h 48% 0.0 mm CLR
22:40 17.2 °C 6.4 °C 1011.6 hPa WNW 13.0 km/h 18.5 km/h 49% 0.0 mm CLR
22:45 17.0 °C 6.2 °C 1011.6 hPa WNW 13.0 km/h 20.4 km/h 49% 0.0 mm CLR
22:50 16.8 °C 6.0 °C 1011.7 hPa NW 13.0 km/h 16.1 km/h 49% 0.0 mm CLR
22:55 16.7 °C 6.2 °C 1011.7 hPa West 13.0 km/h 21.7 km/h 50% 0.0 mm CLR
23:00 16.6 °C 6.1 °C 1011.7 hPa WNW 12.9 km/h 25.7 km/h 50% 0.0 mm CLR
23:05 16.5 °C 6.1 °C 1011.9 hPa NW 13.7 km/h 14.8 km/h 50% 0.0 mm CLR
23:10 16.5 °C 6.1 °C 1011.9 hPa WNW 14.0 km/h 14.8 km/h 50% 0.0 mm CLR
23:15 16.5 °C 6.1 °C 1011.9 hPa West 14.0 km/h 13.0 km/h 50% 0.0 mm CLR
23:20 16.4 °C 5.9 °C 1012.2 hPa West 10.3 km/h 20.4 km/h 50% 0.0 mm CLR
23:25 16.4 °C 5.9 °C 1012.2 hPa West 10.3 km/h 11.1 km/h 50% 0.0 mm CLR
23:30 16.3 °C 5.8 °C 1012.2 hPa WSW 9.5 km/h 14.8 km/h 50% 0.0 mm CLR
23:35 16.4 °C 5.9 °C 1012.3 hPa West 9.5 km/h 12.2 km/h 50% 0.0 mm CLR
23:40 16.3 °C 5.3 °C 1012.3 hPa West 8.4 km/h 16.1 km/h 48% 0.0 mm CLR
23:45 16.4 °C 4.7 °C 1012.3 hPa WSW 8.4 km/h 20.4 km/h 46% 0.0 mm CLR
23:50 16.4 °C 4.1 °C 1012.3 hPa SW 11.9 km/h 22.2 km/h 44% 0.0 mm CLR
23:55 16.5 °C 3.9 °C 1012.3 hPa WSW 11.9 km/h 20.4 km/h 43% 0.0 mm CLR
Murcia-Puente Tocinos, España
Compliments of Weather Underground - 3.5 mb

La estación de MeteoMurcia.com, publica sus datos en los siguientes proyectos:

Weather Underground PWS IMURCIAP2 Meteoclimatic www.awekas.at

W3Counter
Web Analytics